^^
Grace C. Lehan Memorial Weather Station Historical Data
Daily Summary for July 28, 2021 Units:  Both    English   Metric
Daily Weekly Monthly Yearly
  High: Low: Average:
Temperature: 96.5 °F /  35.8 °C 71.9 °F /  22.2 °C 85 °F /  29.4 °C
Dew Point: 79.1 °F /  26.2 °C 69.4 °F /  20.8 °C 74.1 °F /  23.4 °C
Humidity: 93% 50.4% 72%
Wind Speed: 3.9mph /  6.3km/h - 0.8mph /  1.3km/h
Wind Gust: 13mph /  20.9km/h - -
Wind- - WSW
Pressure: 30.15 in /  1020.9 hPa 30.08 in /  1018.5 hPa -
Precipitation: 0.00 in /  0 mm    
 
 
Tabular Data for July 28, 2021
Time Temperature Dew Point Pressure Wind Wind Speed Wind Gust Humidity Rainfall Rate (Hourly) solar
00:04 75.2 °F /  24 °C 70 °F /  21.1 °C 30.09in /  1018.8hPa Calm     84% 0.00in /  0mm 0 W/m2
00:09 75.2 °F /  24 °C 70 °F /  21.1 °C 30.09in /  1018.8hPa WSW 0.1mph /  0.2km/h 2mph /  3.2km/h 84% 0.00in /  0mm 0 W/m2
00:14 75.1 °F /  23.9 °C 69.9 °F /  21.1 °C 30.09in /  1018.8hPa Calm   2mph /  3.2km/h 84% 0.00in /  0mm 0 W/m2
00:19 75 °F /  23.9 °C 69.9 °F /  21.1 °C 30.09in /  1018.8hPa Calm   2mph /  3.2km/h 84% 0.00in /  0mm 0 W/m2
00:24 75 °F /  23.9 °C 69.9 °F /  21.1 °C 30.08in /  1018.5hPa WSW 0.1mph /  0.2km/h 2mph /  3.2km/h 84.2% 0.00in /  0mm 0 W/m2
00:29 75 °F /  23.9 °C 70.2 °F /  21.2 °C 30.09in /  1018.8hPa Calm   2mph /  3.2km/h 85% 0.00in /  0mm 0 W/m2
00:34 75 °F /  23.9 °C 70.1 °F /  21.2 °C 30.09in /  1018.8hPa WSW 0.1mph /  0.2km/h 2mph /  3.2km/h 85% 0.00in /  0mm 0 W/m2
00:39 74.9 °F /  23.8 °C 70.1 °F /  21.2 °C 30.09in /  1018.8hPa Calm   2mph /  3.2km/h 85% 0.00in /  0mm 0 W/m2
00:44 74.8 °F /  23.8 °C 70 °F /  21.1 °C 30.09in /  1018.8hPa Calm   2mph /  3.2km/h 85% 0.00in /  0mm 0 W/m2
00:49 74.7 °F /  23.7 °C 69.9 °F /  21.1 °C 30.09in /  1018.8hPa Calm   2mph /  3.2km/h 85% 0.00in /  0mm 0 W/m2
00:54 74.6 °F /  23.7 °C 69.8 °F /  21 °C 30.09in /  1018.8hPa Calm   2mph /  3.2km/h 85% 0.00in /  0mm 0 W/m2
00:59 74.5 °F /  23.6 °C 69.7 °F /  20.9 °C 30.09in /  1018.8hPa Calm   2mph /  3.2km/h 85% 0.00in /  0mm 0 W/m2
01:04 74.4 °F /  23.6 °C 69.9 °F /  21.1 °C 30.09in /  1018.8hPa Calm   2mph /  3.2km/h 85.9% 0.00in /  0mm 0 W/m2
01:09 74.4 °F /  23.6 °C 69.9 °F /  21.1 °C 30.09in /  1018.8hPa Calm     86% 0.00in /  0mm 0 W/m2
01:14 74.4 °F /  23.6 °C 69.9 °F /  21.1 °C 30.09in /  1018.8hPa Calm     86% 0.00in /  0mm 0 W/m2
01:19 74.4 °F /  23.6 °C 69.9 °F /  21.1 °C 30.10in /  1019.2hPa Calm     86% 0.00in /  0mm 0 W/m2
01:24 74.4 °F /  23.6 °C 69.9 °F /  21.1 °C 30.09in /  1018.8hPa Calm     86% 0.00in /  0mm 0 W/m2
01:29 74.3 °F /  23.5 °C 69.9 °F /  21.1 °C 30.10in /  1019.2hPa Calm     86.2% 0.00in /  0mm 0 W/m2
01:34 74.2 °F /  23.4 °C 70.1 °F /  21.2 °C 30.10in /  1019.2hPa Calm     86.9% 0.00in /  0mm 0 W/m2
01:39 74.2 °F /  23.4 °C 70.1 °F /  21.2 °C 30.10in /  1019.2hPa Calm     87% 0.00in /  0mm 0 W/m2
01:44 74.1 °F /  23.4 °C 70 °F /  21.1 °C 30.10in /  1019.2hPa Calm     87% 0.00in /  0mm 0 W/m2
01:49 74 °F /  23.3 °C 69.9 °F /  21.1 °C 30.10in /  1019.2hPa Calm     87% 0.00in /  0mm 0 W/m2
01:54 73.9 °F /  23.3 °C 69.9 °F /  21.1 °C 30.10in /  1019.2hPa Calm     87.4% 0.00in /  0mm 0 W/m2
01:59 73.9 °F /  23.3 °C 70 °F /  21.1 °C 30.10in /  1019.2hPa Calm     87.6% 0.00in /  0mm 0 W/m2
02:04 73.9 °F /  23.3 °C 70.1 °F /  21.2 °C 30.10in /  1019.2hPa Calm     88% 0.00in /  0mm 0 W/m2
02:09 73.8 °F /  23.2 °C 70 °F /  21.1 °C 30.10in /  1019.2hPa Calm     88% 0.00in /  0mm 0 W/m2
02:14 73.8 °F /  23.2 °C 70 °F /  21.1 °C 30.10in /  1019.2hPa Calm     88% 0.00in /  0mm 0 W/m2
02:19 73.7 °F /  23.2 °C 70 °F /  21.1 °C 30.10in /  1019.2hPa Calm     88% 0.00in /  0mm 0 W/m2
02:24 73.7 °F /  23.2 °C 69.9 °F /  21.1 °C 30.10in /  1019.2hPa Calm     88% 0.00in /  0mm 0 W/m2
02:29 73.7 °F /  23.2 °C 69.9 °F /  21.1 °C 30.10in /  1019.2hPa Calm     88% 0.00in /  0mm 0 W/m2
02:34 73.6 °F /  23.1 °C 69.8 °F /  21 °C 30.10in /  1019.2hPa Calm     88% 0.00in /  0mm 0 W/m2
02:39 73.5 °F /  23.1 °C 69.7 °F /  20.9 °C 30.10in /  1019.2hPa Calm   1mph /  1.6km/h 88% 0.00in /  0mm 0 W/m2
02:41 73.5 °F /  23.1 °C 69.7 °F /  20.9 °C 30.10in /  1019.2hPa Calm   1mph /  1.6km/h 88% 0.00in /  0mm 0 W/m2
03:00 73.2 °F /  22.9 °C 69.8 °F /  21 °C 30.11in /  1019.5hPa Calm   2mph /  3.2km/h 89% 0.00in /  0mm 0 W/m2
03:30 72.9 °F /  22.7 °C 69.8 °F /  21 °C 30.11in /  1019.5hPa Calm   2mph /  3.2km/h 90% 0.00in /  0mm 0 W/m2
04:03 72.6 °F /  22.6 °C 69.5 °F /  20.8 °C 30.12in /  1019.9hPa Calm     90% 0.00in /  0mm 0 W/m2
04:09 72.6 °F /  22.6 °C 69.8 °F /  21 °C 30.12in /  1019.9hPa Calm     91% 0.00in /  0mm 0 W/m2
04:14 72.5 °F /  22.5 °C 69.7 °F /  20.9 °C 30.12in /  1019.9hPa Calm     91% 0.00in /  0mm 0 W/m2
04:19 72.5 °F /  22.5 °C 69.7 °F /  20.9 °C 30.12in /  1019.9hPa Calm     91% 0.00in /  0mm 0 W/m2
04:24 72.4 °F /  22.4 °C 69.7 °F /  20.9 °C 30.12in /  1019.9hPa Calm     91% 0.00in /  0mm 0 W/m2
04:29 72.4 °F /  22.4 °C 69.6 °F /  20.9 °C 30.12in /  1019.9hPa Calm     91% 0.00in /  0mm 0 W/m2
04:34 72.3 °F /  22.4 °C 69.6 °F /  20.9 °C 30.12in /  1019.9hPa Calm     91% 0.00in /  0mm 0 W/m2
04:39 72.3 °F /  22.4 °C 69.5 °F /  20.8 °C 30.12in /  1019.9hPa Calm     91% 0.00in /  0mm 0 W/m2
04:44 72.2 °F /  22.3 °C 69.4 °F /  20.8 °C 30.12in /  1019.9hPa Calm     91% 0.00in /  0mm 0 W/m2
04:49 72.2 °F /  22.3 °C 69.4 °F /  20.8 °C 30.13in /  1020.2hPa Calm     91% 0.00in /  0mm 0 W/m2
04:54 72.2 °F /  22.3 °C 69.5 °F /  20.8 °C 30.13in /  1020.2hPa Calm     91.4% 0.00in /  0mm 0 W/m2
04:59 72.1 °F /  22.3 °C 69.7 °F /  20.9 °C 30.13in /  1020.2hPa Calm     92% 0.00in /  0mm 0 W/m2
05:04 72.1 °F /  22.3 °C 69.7 °F /  20.9 °C 30.13in /  1020.2hPa Calm     92% 0.00in /  0mm 0 W/m2
05:09 72.1 °F /  22.3 °C 69.6 °F /  20.9 °C 30.13in /  1020.2hPa Calm     92% 0.00in /  0mm 0 W/m2
05:14 72 °F /  22.2 °C 69.6 °F /  20.9 °C 30.13in /  1020.2hPa Calm     92% 0.00in /  0mm 0 W/m2
05:19 72 °F /  22.2 °C 69.6 °F /  20.9 °C 30.13in /  1020.2hPa Calm     92% 0.00in /  0mm 0 W/m2
05:24 72 °F /  22.2 °C 69.5 °F /  20.8 °C 30.13in /  1020.2hPa Calm     92% 0.00in /  0mm 0 W/m2
05:29 71.9 °F /  22.2 °C 69.5 °F /  20.8 °C 30.14in /  1020.5hPa Calm     92% 0.00in /  0mm 5 W/m2
05:34 71.9 °F /  22.2 °C 69.4 °F /  20.8 °C 30.14in /  1020.5hPa Calm     92% 0.00in /  0mm 7 W/m2
05:39 71.9 °F /  22.2 °C 69.4 °F /  20.8 °C 30.14in /  1020.5hPa Calm     92% 0.00in /  0mm 12 W/m2
05:44 71.9 °F /  22.2 °C 69.4 °F /  20.8 °C 30.14in /  1020.5hPa Calm     92% 0.00in /  0mm 16 W/m2
05:49 71.9 °F /  22.2 °C 69.4 °F /  20.8 °C 30.14in /  1020.5hPa Calm     92% 0.00in /  0mm 18 W/m2
05:54 71.9 °F /  22.2 °C 69.4 °F /  20.8 °C 30.14in /  1020.5hPa Calm     92% 0.00in /  0mm 23 W/m2
05:59 71.9 °F /  22.2 °C 69.4 °F /  20.8 °C 30.14in /  1020.5hPa Calm     92% 0.00in /  0mm 28 W/m2
06:04 72 °F /  22.2 °C 69.5 °F /  20.8 °C 30.14in /  1020.5hPa Calm     92% 0.00in /  0mm 32 W/m2
06:09 72.1 °F /  22.3 °C 69.9 °F /  21.1 °C 30.14in /  1020.5hPa Calm     92.9% 0.00in /  0mm 32 W/m2
06:14 72.2 °F /  22.3 °C 70 °F /  21.1 °C 30.14in /  1020.5hPa Calm     93% 0.00in /  0mm 35 W/m2
06:19 72.3 °F /  22.4 °C 70.1 °F /  21.2 °C 30.14in /  1020.5hPa Calm     93% 0.00in /  0mm 40 W/m2
06:24 72.4 °F /  22.4 °C 70.3 °F /  21.3 °C 30.14in /  1020.5hPa Calm     93% 0.00in /  0mm 46 W/m2
06:29 72.6 °F /  22.6 °C 70.2 °F /  21.2 °C 30.14in /  1020.5hPa Calm     92.1% 0.00in /  0mm 63 W/m2
06:34 72.8 °F /  22.7 °C 70.4 °F /  21.3 °C 30.14in /  1020.5hPa Calm     92% 0.00in /  0mm 81 W/m2
06:39 73.1 °F /  22.8 °C 70.6 °F /  21.4 °C 30.14in /  1020.5hPa Calm     92% 0.00in /  0mm 86 W/m2
06:44 73.4 °F /  23 °C 71 °F /  21.7 °C 30.14in /  1020.5hPa Calm     92% 0.00in /  0mm 83 W/m2
06:49 73.9 °F /  23.3 °C 71.3 °F /  21.8 °C 30.14in /  1020.5hPa Calm     91.5% 0.00in /  0mm 86 W/m2
06:54 74.4 °F /  23.6 °C 71.5 °F /  21.9 °C 30.15in /  1020.9hPa Calm     90.7% 0.00in /  0mm 86 W/m2
06:59 75 °F /  23.9 °C 71.8 °F /  22.1 °C 30.15in /  1020.9hPa Calm     89.8% 0.00in /  0mm 91 W/m2
07:04 75.7 °F /  24.3 °C 72.1 °F /  22.3 °C 30.15in /  1020.9hPa Calm     88.8% 0.00in /  0mm 91 W/m2
07:09 76.3 °F /  24.6 °C 72.2 °F /  22.3 °C 30.15in /  1020.9hPa Calm     87.3% 0.00in /  0mm 86 W/m2
07:14 76.8 °F /  24.9 °C 72.3 °F /  22.4 °C 30.15in /  1020.9hPa Calm     85.9% 0.00in /  0mm 84 W/m2
07:19 77.2 °F /  25.1 °C 72.3 °F /  22.4 °C 30.14in /  1020.5hPa Calm     85% 0.00in /  0mm 88 W/m2
07:24 77.6 °F /  25.3 °C 72.4 °F /  22.4 °C 30.14in /  1020.5hPa Calm     84.1% 0.00in /  0mm 127 W/m2
07:29 78 °F /  25.6 °C 72.8 °F /  22.7 °C 30.14in /  1020.5hPa Calm   1mph /  1.6km/h 84% 0.00in /  0mm 290 W/m2
07:34 78.4 °F /  25.8 °C 72.9 °F /  22.7 °C 30.14in /  1020.5hPa Calm   1mph /  1.6km/h 83.2% 0.00in /  0mm 304 W/m2
07:39 79 °F /  26.1 °C 73.1 °F /  22.8 °C 30.15in /  1020.9hPa Calm     82.2% 0.00in /  0mm 304 W/m2
07:44 79.6 °F /  26.4 °C 73.5 °F /  23.1 °C 30.15in /  1020.9hPa Calm   1mph /  1.6km/h 81.8% 0.00in /  0mm 306 W/m2
07:49 80.2 °F /  26.8 °C 73.8 °F /  23.2 °C 30.15in /  1020.9hPa Calm   1mph /  1.6km/h 81% 0.00in /  0mm 325 W/m2
07:54 80.8 °F /  27.1 °C 73.9 °F /  23.3 °C 30.15in /  1020.9hPa Calm   1mph /  1.6km/h 79.8% 0.00in /  0mm 338 W/m2
07:59 81.3 °F /  27.4 °C 74.1 °F /  23.4 °C 30.15in /  1020.9hPa Calm   1mph /  1.6km/h 79% 0.00in /  0mm 336 W/m2
08:04 82 °F /  27.8 °C 74.5 °F /  23.6 °C 30.15in /  1020.9hPa Calm     78% 0.00in /  0mm 360 W/m2
08:09 82.2 °F /  27.9 °C 74.8 °F /  23.8 °C 30.15in /  1020.9hPa WSW 0.1mph /  0.2km/h 3mph /  4.8km/h 78.2% 0.00in /  0mm 359 W/m2
08:14 82.7 °F /  28.2 °C 74.7 °F /  23.7 °C 30.15in /  1020.9hPa Calm   3mph /  4.8km/h 76.8% 0.00in /  0mm 288 W/m2
08:19 82.9 °F /  28.3 °C 74.8 °F /  23.8 °C 30.15in /  1020.9hPa WSW 0.4mph /  0.6km/h 7mph /  11.3km/h 76.5% 0.00in /  0mm 450 W/m2
08:24 83.4 °F /  28.6 °C 75.6 °F /  24.2 °C 30.15in /  1020.9hPa SW 1.2mph /  1.9km/h 7mph /  11.3km/h 77.3% 0.00in /  0mm 473 W/m2
08:29 84 °F /  28.9 °C 75.3 °F /  24.1 °C 30.15in /  1020.9hPa SW 0.5mph /  0.8km/h 7mph /  11.3km/h 75.2% 0.00in /  0mm 501 W/m2
08:34 84.6 °F /  29.2 °C 75.9 °F /  24.4 °C 30.15in /  1020.9hPa SW 0.2mph /  0.3km/h 7mph /  11.3km/h 75.3% 0.00in /  0mm 526 W/m2
08:39 85.3 °F /  29.6 °C 76.1 °F /  24.5 °C 30.15in /  1020.9hPa SW 0.2mph /  0.3km/h 5mph /  8km/h 74.2% 0.00in /  0mm 552 W/m2
08:44 86 °F /  30 °C 76 °F /  24.4 °C 30.15in /  1020.9hPa SW 0.1mph /  0.2km/h 5mph /  8km/h 72.2% 0.00in /  0mm 552 W/m2
08:49 86.4 °F /  30.2 °C 76.1 °F /  24.5 °C 30.15in /  1020.9hPa SW 0.8mph /  1.3km/h 5mph /  8km/h 71.4% 0.00in /  0mm 424 W/m2
08:54 86.6 °F /  30.3 °C 76 °F /  24.4 °C 30.15in /  1020.9hPa SW 0.4mph /  0.6km/h 5mph /  8km/h 70.8% 0.00in /  0mm 411 W/m2
08:59 86.5 °F /  30.3 °C 75.9 °F /  24.4 °C 30.15in /  1020.9hPa SW 0.7mph /  1.1km/h 6mph /  9.7km/h 70.9% 0.00in /  0mm 520 W/m2
09:04 86.4 °F /  30.2 °C 76.1 °F /  24.5 °C 30.14in /  1020.5hPa SW 0.2mph /  0.3km/h 6mph /  9.7km/h 71.5% 0.00in /  0mm 450 W/m2
09:09 86.5 °F /  30.3 °C 76.3 °F /  24.6 °C 30.15in /  1020.9hPa SW 0.2mph /  0.3km/h 4mph /  6.4km/h 71.7% 0.00in /  0mm 406 W/m2
09:14 86.3 °F /  30.2 °C 75.8 °F /  24.3 °C 30.15in /  1020.9hPa SW 0.1mph /  0.2km/h 4mph /  6.4km/h 70.9% 0.00in /  0mm 357 W/m2
09:19 86.1 °F /  30.1 °C 75.8 °F /  24.3 °C 30.15in /  1020.9hPa SW 0.8mph /  1.3km/h 6mph /  9.7km/h 71.4% 0.00in /  0mm 378 W/m2
09:24 85.9 °F /  29.9 °C 75.8 °F /  24.3 °C 30.15in /  1020.9hPa Calm   6mph /  9.7km/h 71.8% 0.00in /  0mm 373 W/m2
09:29 85.9 °F /  29.9 °C 75.7 °F /  24.3 °C 30.14in /  1020.5hPa Calm   6mph /  9.7km/h 71.8% 0.00in /  0mm 601 W/m2
09:34 85.9 °F /  29.9 °C 76.2 °F /  24.6 °C 30.14in /  1020.5hPa WSW 1.4mph /  2.3km/h 9mph /  14.5km/h 73% 0.00in /  0mm 788 W/m2
09:39 86.6 °F /  30.3 °C 76.4 °F /  24.7 °C 30.14in /  1020.5hPa WSW 2.2mph /  3.5km/h 9mph /  14.5km/h 71.8% 0.00in /  0mm 768 W/m2
09:44 87.3 °F /  30.7 °C 76.4 °F /  24.7 °C 30.14in /  1020.5hPa WSW 2.9mph /  4.7km/h 10mph /  16.1km/h 70.2% 0.00in /  0mm 773 W/m2
09:49 87.9 °F /  31.1 °C 76.8 °F /  24.9 °C 30.14in /  1020.5hPa WSW 0.5mph /  0.8km/h 10mph /  16.1km/h 69.7% 0.00in /  0mm 687 W/m2
09:54 88.3 °F /  31.3 °C 76.8 °F /  24.9 °C 30.14in /  1020.5hPa WSW 0.2mph /  0.3km/h 10mph /  16.1km/h 68.9% 0.00in /  0mm 668 W/m2
09:59 88.5 °F /  31.4 °C 76.5 °F /  24.7 °C 30.14in /  1020.5hPa WSW 0.9mph /  1.4km/h 10mph /  16.1km/h 67.8% 0.00in /  0mm 608 W/m2
10:04 88.4 °F /  31.3 °C 76.6 °F /  24.8 °C 30.14in /  1020.5hPa WSW 1.2mph /  1.9km/h 10mph /  16.1km/h 68.2% 0.00in /  0mm 506 W/m2
10:09 88.2 °F /  31.2 °C 76.6 °F /  24.8 °C 30.14in /  1020.5hPa WSW 1.8mph /  2.9km/h 6mph /  9.7km/h 68.7% 0.00in /  0mm 587 W/m2
10:14 88 °F /  31.1 °C 76.3 °F /  24.6 °C 30.14in /  1020.5hPa WSW 0.4mph /  0.6km/h 6mph /  9.7km/h 68.5% 0.00in /  0mm 691 W/m2
10:19 87.9 °F /  31.1 °C 76.6 °F /  24.8 °C 30.14in /  1020.5hPa WSW 0.7mph /  1.1km/h 6mph /  9.7km/h 69.3% 0.00in /  0mm 773 W/m2
10:24 88.2 °F /  31.2 °C 77.2 °F /  25.1 °C 30.14in /  1020.5hPa WSW 0.5mph /  0.8km/h 6mph /  9.7km/h 70% 0.00in /  0mm 795 W/m2
10:29 88.7 °F /  31.5 °C 77.2 °F /  25.1 °C 30.14in /  1020.5hPa WSW 1.1mph /  1.8km/h 7mph /  11.3km/h 69.1% 0.00in /  0mm 819 W/m2
10:34 89.3 °F /  31.8 °C 77.3 °F /  25.2 °C 30.14in /  1020.5hPa WSW 1.3mph /  2.1km/h 7mph /  11.3km/h 67.8% 0.00in /  0mm 851 W/m2
10:39 90 °F /  32.2 °C 78.1 °F /  25.6 °C 30.14in /  1020.5hPa WSW 0.8mph /  1.3km/h 6mph /  9.7km/h 68.1% 0.00in /  0mm 867 W/m2
10:44 90.7 °F /  32.6 °C 77.8 °F /  25.4 °C 30.14in /  1020.5hPa WSW 1.2mph /  1.9km/h 6mph /  9.7km/h 66.1% 0.00in /  0mm 868 W/m2
10:49 91.2 °F /  32.9 °C 78.6 °F /  25.9 °C 30.14in /  1020.5hPa WSW 1.2mph /  1.9km/h 6mph /  9.7km/h 66.8% 0.00in /  0mm 874 W/m2
10:54 91.7 °F /  33.2 °C 78.1 °F /  25.6 °C 30.14in /  1020.5hPa WSW 1.5mph /  2.4km/h 7mph /  11.3km/h 64.8% 0.00in /  0mm 874 W/m2
10:59 92 °F /  33.3 °C 78.1 °F /  25.6 °C 30.14in /  1020.5hPa WSW 1.4mph /  2.3km/h 7mph /  11.3km/h 64.1% 0.00in /  0mm 863 W/m2
11:04 92.4 °F /  33.6 °C 78.3 °F /  25.7 °C 30.14in /  1020.5hPa WSW 0.8mph /  1.3km/h 7mph /  11.3km/h 63.5% 0.00in /  0mm 854 W/m2
11:09 92.8 °F /  33.8 °C 78 °F /  25.6 °C 30.13in /  1020.2hPa WSW 0.8mph /  1.3km/h 4mph /  6.4km/h 62.3% 0.00in /  0mm 858 W/m2
11:14 92.7 °F /  33.7 °C 77.8 °F /  25.4 °C 30.13in /  1020.2hPa WSW 1mph /  1.6km/h 4mph /  6.4km/h 62% 0.00in /  0mm 847 W/m2
11:19 92.8 °F /  33.8 °C 78.2 °F /  25.7 °C 30.13in /  1020.2hPa WSW 1.5mph /  2.4km/h 5mph /  8km/h 62.7% 0.00in /  0mm 867 W/m2
11:24 93 °F /  33.9 °C 78.3 °F /  25.7 °C 30.13in /  1020.2hPa SW 1.5mph /  2.4km/h 5mph /  8km/h 62.5% 0.00in /  0mm 907 W/m2
11:29 93.4 °F /  34.1 °C 78.6 °F /  25.9 °C 30.13in /  1020.2hPa WSW 1.9mph /  3.1km/h 5mph /  8km/h 62.4% 0.00in /  0mm 919 W/m2
11:34 93.9 °F /  34.4 °C 79.1 °F /  26.2 °C 30.14in /  1020.5hPa WSW 0.1mph /  0.2km/h 5mph /  8km/h 62.3% 0.00in /  0mm 921 W/m2
11:39 94.5 °F /  34.7 °C 78.2 °F /  25.7 °C 30.14in /  1020.5hPa WSW 0.9mph /  1.4km/h 4mph /  6.4km/h 59.5% 0.00in /  0mm 937 W/m2
11:44 94.7 °F /  34.8 °C 78.6 °F /  25.9 °C 30.14in /  1020.5hPa WSW 1mph /  1.6km/h 4mph /  6.4km/h 59.9% 0.00in /  0mm 937 W/m2
11:49 94.6 °F /  34.8 °C 78.9 °F /  26.1 °C 30.13in /  1020.2hPa WSW 1.6mph /  2.6km/h 5mph /  8km/h 60.7% 0.00in /  0mm 1016 W/m2
11:54 94.3 °F /  34.6 °C 77.9 °F /  25.5 °C 30.13in /  1020.2hPa WSW 1.2mph /  1.9km/h 5mph /  8km/h 59.3% 0.00in /  0mm 1016 W/m2
11:59 94.1 °F /  34.5 °C 78.2 °F /  25.7 °C 30.13in /  1020.2hPa WSW 1.1mph /  1.8km/h 5mph /  8km/h 60.3% 0.00in /  0mm 1016 W/m2
12:00 94 °F /  34.4 °C 78 °F /  25.6 °C 30.13in /  1020.2hPa Calm   5mph /  8km/h 60% 0.00in /  0mm 981 W/m2
12:09 93.8 °F /  34.3 °C 77.6 °F /  25.3 °C 30.13in /  1020.2hPa WSW 0.5mph /  0.8km/h 3mph /  4.8km/h 59.7% 0.00in /  0mm 1021 W/m2
12:14 93.8 °F /  34.3 °C 78.6 °F /  25.9 °C 30.13in /  1020.2hPa WSW 0.9mph /  1.4km/h 5mph /  8km/h 61.5% 0.00in /  0mm 1021 W/m2
12:19 93.9 °F /  34.4 °C 78 °F /  25.6 °C 30.13in /  1020.2hPa WSW 1mph /  1.6km/h 5mph /  8km/h 60.2% 0.00in /  0mm 937 W/m2
12:24 93.6 °F /  34.2 °C 77.5 °F /  25.3 °C 30.12in /  1019.9hPa WSW 1.8mph /  2.9km/h 5mph /  8km/h 59.6% 0.00in /  0mm 949 W/m2
12:29 93.5 °F /  34.2 °C 78 °F /  25.6 °C 30.12in /  1019.9hPa WSW 1.1mph /  1.8km/h 7mph /  11.3km/h 60.9% 0.00in /  0mm 949 W/m2
12:34 93.9 °F /  34.4 °C 78.7 °F /  25.9 °C 30.12in /  1019.9hPa WSW 1.9mph /  3.1km/h 7mph /  11.3km/h 61.6% 0.00in /  0mm 939 W/m2
12:39 94.5 °F /  34.7 °C 78 °F /  25.6 °C 30.12in /  1019.9hPa West 2.5mph /  4km/h 7mph /  11.3km/h 59.1% 0.00in /  0mm 944 W/m2
12:44 94.8 °F /  34.9 °C 77.7 °F /  25.4 °C 30.12in /  1019.9hPa SW 2.8mph /  4.5km/h 10mph /  16.1km/h 58% 0.00in /  0mm 933 W/m2
12:49 94.9 °F /  34.9 °C 77.8 °F /  25.4 °C 30.12in /  1019.9hPa WSW 3.3mph /  5.3km/h 10mph /  16.1km/h 58% 0.00in /  0mm 911 W/m2
12:54 95 °F /  35 °C 77.1 °F /  25.1 °C 30.12in /  1019.9hPa WSW 3.9mph /  6.3km/h 13mph /  20.9km/h 56.6% 0.00in /  0mm 932 W/m2
12:59 95 °F /  35 °C 77.4 °F /  25.2 °C 30.12in /  1019.9hPa WSW 2.6mph /  4.2km/h 13mph /  20.9km/h 57% 0.00in /  0mm 933 W/m2
13:04 95.1 °F /  35.1 °C 77.1 °F /  25.1 °C 30.11in /  1019.5hPa SW 2.2mph /  3.5km/h 13mph /  20.9km/h 56.3% 0.00in /  0mm 944 W/m2
13:09 95 °F /  35 °C 77.4 °F /  25.2 °C 30.11in /  1019.5hPa SW 1.9mph /  3.1km/h 6mph /  9.7km/h 57% 0.00in /  0mm 963 W/m2
13:14 95.1 °F /  35.1 °C 77.2 °F /  25.1 °C 30.11in /  1019.5hPa SSW 1.7mph /  2.7km/h 6mph /  9.7km/h 56.4% 0.00in /  0mm 983 W/m2
13:19 95.3 °F /  35.2 °C 77.2 °F /  25.1 °C 30.11in /  1019.5hPa SW 2.8mph /  4.5km/h 9mph /  14.5km/h 56.2% 0.00in /  0mm 981 W/m2
13:24 95.7 °F /  35.4 °C 77.2 °F /  25.1 °C 30.11in /  1019.5hPa WSW 1.7mph /  2.7km/h 9mph /  14.5km/h 55.5% 0.00in /  0mm 998 W/m2
13:29 95.9 °F /  35.5 °C 77.2 °F /  25.1 °C 30.11in /  1019.5hPa WSW 3mph /  4.8km/h 9mph /  14.5km/h 55.2% 0.00in /  0mm 976 W/m2
13:34 96 °F /  35.6 °C 77.2 °F /  25.1 °C 30.11in /  1019.5hPa WSW 2.7mph /  4.3km/h 9mph /  14.5km/h 55% 0.00in /  0mm 974 W/m2
13:39 96.1 °F /  35.6 °C 76.8 °F /  24.9 °C 30.11in /  1019.5hPa WSW 3mph /  4.8km/h 10mph /  16.1km/h 54.2% 0.00in /  0mm 974 W/m2
13:44 96.1 °F /  35.6 °C 76.2 °F /  24.6 °C 30.11in /  1019.5hPa WSW 2.9mph /  4.7km/h 10mph /  16.1km/h 53.1% 0.00in /  0mm 816 W/m2
13:49 96 °F /  35.6 °C 76.2 °F /  24.6 °C 30.11in /  1019.5hPa WSW 2mph /  3.2km/h 10mph /  16.1km/h 53.1% 0.00in /  0mm 863 W/m2
13:54 96 °F /  35.6 °C 77 °F /  25 °C 30.11in /  1019.5hPa WSW 1.2mph /  1.9km/h 10mph /  16.1km/h 54.7% 0.00in /  0mm 856 W/m2
13:59 95.7 °F /  35.4 °C 76.3 °F /  24.6 °C 30.11in /  1019.5hPa SW 2mph /  3.2km/h 10mph /  16.1km/h 53.8% 0.00in /  0mm 912 W/m2
14:04 95.5 °F /  35.3 °C 76.3 °F /  24.6 °C 30.11in /  1019.5hPa SW 0.9mph /  1.4km/h 10mph /  16.1km/h 54.2% 0.00in /  0mm 918 W/m2
14:09 95.6 °F /  35.3 °C 77.1 °F /  25.1 °C 30.11in /  1019.5hPa WSW 2.3mph /  3.7km/h 9mph /  14.5km/h 55.6% 0.00in /  0mm 962 W/m2
14:14 95.8 °F /  35.4 °C 76.9 °F /  24.9 °C 30.11in /  1019.5hPa West 1.9mph /  3.1km/h 9mph /  14.5km/h 54.8% 0.00in /  0mm 962 W/m2
14:19 95.8 °F /  35.4 °C 75.9 °F /  24.4 °C 30.11in /  1019.5hPa WSW 1.6mph /  2.6km/h 9mph /  14.5km/h 53% 0.00in /  0mm 923 W/m2
14:24 95.8 °F /  35.4 °C 77.2 °F /  25.1 °C 30.11in /  1019.5hPa West 1.7mph /  2.7km/h 9mph /  14.5km/h 55.3% 0.00in /  0mm 923 W/m2
14:29 96.1 °F /  35.6 °C 76.4 °F /  24.7 °C 30.11in /  1019.5hPa SW 2.5mph /  4km/h 9mph /  14.5km/h 53.3% 0.00in /  0mm 805 W/m2
14:34 96.2 °F /  35.7 °C 76 °F /  24.4 °C 30.11in /  1019.5hPa WSW 2mph /  3.2km/h 9mph /  14.5km/h 52.5% 0.00in /  0mm 650 W/m2
14:39 96.1 °F /  35.6 °C 76.8 °F /  24.9 °C 30.11in /  1019.5hPa WSW 1.7mph /  2.7km/h 7mph /  11.3km/h 54% 0.00in /  0mm 853 W/m2
14:44 96.2 °F /  35.7 °C 77 °F /  25 °C 30.10in /  1019.2hPa West 1.3mph /  2.1km/h 7mph /  11.3km/h 54.2% 0.00in /  0mm 872 W/m2
14:49 96.4 °F /  35.8 °C 76.2 °F /  24.6 °C 30.10in /  1019.2hPa WSW 2.3mph /  3.7km/h 7mph /  11.3km/h 52.5% 0.00in /  0mm 802 W/m2
14:54 96.5 °F /  35.8 °C 75.9 °F /  24.4 °C 30.10in /  1019.2hPa West 1.8mph /  2.9km/h 7mph /  11.3km/h 51.9% 0.00in /  0mm 740 W/m2
14:59 96.4 °F /  35.8 °C 76.6 °F /  24.8 °C 30.10in /  1019.2hPa West 2.4mph /  3.9km/h 7mph /  11.3km/h 53.2% 0.00in /  0mm 740 W/m2
15:04 96.2 °F /  35.7 °C 75.8 °F /  24.3 °C 30.10in /  1019.2hPa WSW 2.9mph /  4.7km/h 10mph /  16.1km/h 52.2% 0.00in /  0mm 679 W/m2
15:09 95.8 °F /  35.4 °C 75.2 °F /  24 °C 30.10in /  1019.2hPa SW 2.8mph /  4.5km/h 10mph /  16.1km/h 51.8% 0.00in /  0mm 541 W/m2
15:14 95.5 °F /  35.3 °C 75.5 °F /  24.2 °C 30.10in /  1019.2hPa SW 1.9mph /  3.1km/h 10mph /  16.1km/h 52.8% 0.00in /  0mm 608 W/m2
15:19 95.4 °F /  35.2 °C 75.2 °F /  24 °C 30.10in /  1019.2hPa SW 2.7mph /  4.3km/h 10mph /  16.1km/h 52.3% 0.00in /  0mm 722 W/m2
15:24 95.4 °F /  35.2 °C 74.4 °F /  23.6 °C 30.10in /  1019.2hPa SW 3.1mph /  5km/h 10mph /  16.1km/h 51% 0.00in /  0mm 733 W/m2
15:29 95.4 °F /  35.2 °C 75.1 °F /  23.9 °C 30.10in /  1019.2hPa SW 2.1mph /  3.4km/h 10mph /  16.1km/h 52.1% 0.00in /  0mm 698 W/m2
15:34 95.5 °F /  35.3 °C 75 °F /  23.9 °C 30.10in /  1019.2hPa WSW 1.9mph /  3.1km/h 10mph /  16.1km/h 51.8% 0.00in /  0mm 629 W/m2
15:39 95.6 °F /  35.3 °C 75.8 °F /  24.3 °C 30.10in /  1019.2hPa West 2.4mph /  3.9km/h 10mph /  16.1km/h 53.1% 0.00in /  0mm 733 W/m2
15:44 95.7 °F /  35.4 °C 74.9 °F /  23.8 °C 30.10in /  1019.2hPa WSW 2.2mph /  3.5km/h 10mph /  16.1km/h 51.4% 0.00in /  0mm 726 W/m2
15:49 95.7 °F /  35.4 °C 75 °F /  23.9 °C 30.10in /  1019.2hPa SW 2.1mph /  3.4km/h 10mph /  16.1km/h 51.4% 0.00in /  0mm 726 W/m2
15:54 95.6 °F /  35.3 °C 75.6 °F /  24.2 °C 30.09in /  1018.8hPa WSW 1.7mph /  2.7km/h 10mph /  16.1km/h 52.7% 0.00in /  0mm 671 W/m2
15:59 95.8 °F /  35.4 °C 75.3 °F /  24.1 °C 30.09in /  1018.8hPa WSW 2.7mph /  4.3km/h 10mph /  16.1km/h 52% 0.00in /  0mm 708 W/m2
16:00 95.9 °F /  35.5 °C 74.9 °F /  23.8 °C 30.09in /  1018.8hPa SW 2.5mph /  4km/h 10mph /  16.1km/h 51% 0.00in /  0mm 689 W/m2
16:09 96.3 °F /  35.7 °C 75.7 °F /  24.3 °C 30.09in /  1018.8hPa West 0.9mph /  1.4km/h 4mph /  6.4km/h 51.8% 0.00in /  0mm 693 W/m2
16:14 96.3 °F /  35.7 °C 75.9 °F /  24.4 °C 30.09in /  1018.8hPa West 1.1mph /  1.8km/h 6mph /  9.7km/h 52.2% 0.00in /  0mm 701 W/m2
16:19 96.2 °F /  35.7 °C 75 °F /  23.9 °C 30.09in /  1018.8hPa SW 3.2mph /  5.1km/h 11mph /  17.7km/h 50.7% 0.00in /  0mm 671 W/m2
16:24 95.9 °F /  35.5 °C 74.5 °F /  23.6 °C 30.09in /  1018.8hPa WSW 2.1mph /  3.4km/h 11mph /  17.7km/h 50.4% 0.00in /  0mm 67 W/m2
16:29 95.6 °F /  35.3 °C 74.8 °F /  23.8 °C 30.09in /  1018.8hPa WSW 2.8mph /  4.5km/h 12mph /  19.3km/h 51.3% 0.00in /  0mm 77 W/m2
16:34 95.4 °F /  35.2 °C 74.8 °F /  23.8 °C 30.09in /  1018.8hPa WSW 0.6mph /  1km/h 12mph /  19.3km/h 51.7% 0.00in /  0mm 74 W/m2
16:39 95.3 °F /  35.2 °C 75.2 °F /  24 °C 30.08in /  1018.5hPa WSW 2.4mph /  3.9km/h 9mph /  14.5km/h 52.5% 0.00in /  0mm 62 W/m2
16:44 95.2 °F /  35.1 °C 75 °F /  23.9 °C 30.08in /  1018.5hPa WSW 1.6mph /  2.6km/h 9mph /  14.5km/h 52.3% 0.00in /  0mm 62 W/m2
16:49 95.1 °F /  35.1 °C 74.5 °F /  23.6 °C 30.08in /  1018.5hPa WSW 1.8mph /  2.9km/h 9mph /  14.5km/h 51.7% 0.00in /  0mm 72 W/m2
16:54 95.1 °F /  35.1 °C 74.5 °F /  23.6 °C 30.08in /  1018.5hPa West 1.8mph /  2.9km/h 9mph /  14.5km/h 51.6% 0.00in /  0mm 69 W/m2
16:59 95 °F /  35 °C 74.6 °F /  23.7 °C 30.08in /  1018.5hPa WSW 3.8mph /  6.1km/h 12mph /  19.3km/h 52% 0.00in /  0mm 54 W/m2
17:04 94.9 °F /  34.9 °C 73.7 °F /  23.2 °C 30.08in /  1018.5hPa WSW 2.9mph /  4.7km/h 12mph /  19.3km/h 50.6% 0.00in /  0mm 67 W/m2
17:09 94.8 °F /  34.9 °C 73.6 °F /  23.1 °C 30.08in /  1018.5hPa WSW 2.2mph /  3.5km/h 12mph /  19.3km/h 50.6% 0.00in /  0mm 70 W/m2
17:14 94.7 °F /  34.8 °C 74.2 °F /  23.4 °C 30.08in /  1018.5hPa WSW 2.6mph /  4.2km/h 12mph /  19.3km/h 51.7% 0.00in /  0mm 51 W/m2
17:19 94.7 °F /  34.8 °C 74.5 °F /  23.6 °C 30.08in /  1018.5hPa SW 2.1mph /  3.4km/h 12mph /  19.3km/h 52.3% 0.00in /  0mm 53 W/m2
17:24 94.5 °F /  34.7 °C 74.2 °F /  23.4 °C 30.08in /  1018.5hPa WSW 3.1mph /  5km/h 12mph /  19.3km/h 52.2% 0.00in /  0mm 62 W/m2
17:29 94.1 °F /  34.5 °C 74 °F /  23.3 °C 30.08in /  1018.5hPa WSW 2.3mph /  3.7km/h 12mph /  19.3km/h 52.2% 0.00in /  0mm 60 W/m2
17:34 93.9 °F /  34.4 °C 73.8 °F /  23.2 °C 30.08in /  1018.5hPa SW 3.4mph /  5.5km/h 12mph /  19.3km/h 52.4% 0.00in /  0mm 51 W/m2
17:39 93.8 °F /  34.3 °C 74.2 °F /  23.4 °C 30.08in /  1018.5hPa SW 1mph /  1.6km/h 10mph /  16.1km/h 53.2% 0.00in /  0mm 65 W/m2
17:44 93.8 °F /  34.3 °C 74.8 °F /  23.8 °C 30.08in /  1018.5hPa WSW 1.4mph /  2.3km/h 10mph /  16.1km/h 54.2% 0.00in /  0mm 77 W/m2
17:49 93.8 °F /  34.3 °C 74.7 °F /  23.7 °C 30.08in /  1018.5hPa SW 2.4mph /  3.9km/h 10mph /  16.1km/h 54% 0.00in /  0mm 77 W/m2
17:54 93.8 °F /  34.3 °C 74.6 °F /  23.7 °C 30.08in /  1018.5hPa WSW 3.3mph /  5.3km/h 10mph /  16.1km/h 54% 0.00in /  0mm 51 W/m2
17:59 93.7 °F /  34.3 °C 74.7 °F /  23.7 °C 30.08in /  1018.5hPa SW 3mph /  4.8km/h 10mph /  16.1km/h 54.4% 0.00in /  0mm 58 W/m2
18:04 93.5 °F /  34.2 °C 74.5 °F /  23.6 °C 30.08in /  1018.5hPa SW 2mph /  3.2km/h 10mph /  16.1km/h 54.4% 0.00in /  0mm 65 W/m2
18:09 93.3 °F /  34.1 °C 74.8 °F /  23.8 °C 30.08in /  1018.5hPa WSW 1.4mph /  2.3km/h 10mph /  16.1km/h 55.2% 0.00in /  0mm 77 W/m2
18:14 93.2 °F /  34 °C 75.2 °F /  24 °C 30.08in /  1018.5hPa WSW 0.4mph /  0.6km/h 10mph /  16.1km/h 56% 0.00in /  0mm 76 W/m2
18:19 93.1 °F /  33.9 °C 76.1 °F /  24.5 °C 30.08in /  1018.5hPa WSW 2.1mph /  3.4km/h 10mph /  16.1km/h 57.9% 0.00in /  0mm 102 W/m2
18:24 92.9 °F /  33.8 °C 77.2 °F /  25.1 °C 30.08in /  1018.5hPa SSW 0.9mph /  1.4km/h 10mph /  16.1km/h 60.5% 0.00in /  0mm 100 W/m2
18:29 92.6 °F /  33.7 °C 77.4 °F /  25.2 °C 30.09in /  1018.8hPa WSW 1.5mph /  2.4km/h 10mph /  16.1km/h 61.5% 0.00in /  0mm 95 W/m2
18:34 92.1 °F /  33.4 °C 77.2 °F /  25.1 °C 30.09in /  1018.8hPa SSW 1.6mph /  2.6km/h 10mph /  16.1km/h 62% 0.00in /  0mm 44 W/m2
18:39 91.5 °F /  33.1 °C 77.2 °F /  25.1 °C 30.08in /  1018.5hPa SSW 0.8mph /  1.3km/h 5mph /  8km/h 63.1% 0.00in /  0mm 44 W/m2
18:44 91 °F /  32.8 °C 77.2 °F /  25.1 °C 30.08in /  1018.5hPa WNW 0.4mph /  0.6km/h 5mph /  8km/h 64.2% 0.00in /  0mm 33 W/m2
18:49 90.5 °F /  32.5 °C 77.2 °F /  25.1 °C 30.08in /  1018.5hPa WSW 1.3mph /  2.1km/h 5mph /  8km/h 65% 0.00in /  0mm 32 W/m2
18:54 90.1 °F /  32.3 °C 76.9 °F /  24.9 °C 30.09in /  1018.8hPa South 0.2mph /  0.3km/h 5mph /  8km/h 65.3% 0.00in /  0mm 30 W/m2
18:59 89.8 °F /  32.1 °C 77 °F /  25 °C 30.09in /  1018.8hPa South 1.6mph /  2.6km/h 7mph /  11.3km/h 66% 0.00in /  0mm 28 W/m2
19:04 89.6 °F /  32 °C 76.9 °F /  24.9 °C 30.09in /  1018.8hPa SSW 0.3mph /  0.5km/h 7mph /  11.3km/h 66.4% 0.00in /  0mm 28 W/m2
19:09 89.3 °F /  31.8 °C 76.9 °F /  24.9 °C 30.09in /  1018.8hPa SSW 0.7mph /  1.1km/h 4mph /  6.4km/h 67% 0.00in /  0mm 26 W/m2
19:14 89.1 °F /  31.7 °C 76.7 °F /  24.8 °C 30.09in /  1018.8hPa SSW 0.8mph /  1.3km/h 4mph /  6.4km/h 67% 0.00in /  0mm 25 W/m2
19:19 88.8 °F /  31.6 °C 76.6 °F /  24.8 °C 30.09in /  1018.8hPa SSW 1mph /  1.6km/h 5mph /  8km/h 67.3% 0.00in /  0mm 25 W/m2
19:24 88.5 °F /  31.4 °C 76.6 °F /  24.8 °C 30.09in /  1018.8hPa SSW 0.4mph /  0.6km/h 6mph /  9.7km/h 68% 0.00in /  0mm 23 W/m2
19:29 88.3 °F /  31.3 °C 76.4 °F /  24.7 °C 30.09in /  1018.8hPa SSW 0.5mph /  0.8km/h 6mph /  9.7km/h 68% 0.00in /  0mm 21 W/m2
19:34 88.1 °F /  31.2 °C 76.2 °F /  24.6 °C 30.09in /  1018.8hPa SW 0.8mph /  1.3km/h 6mph /  9.7km/h 68% 0.00in /  0mm 19 W/m2
19:39 87.9 °F /  31.1 °C 76.3 °F /  24.6 °C 30.09in /  1018.8hPa WSW 0.8mph /  1.3km/h 10mph /  16.1km/h 68.7% 0.00in /  0mm 18 W/m2
19:44 87.7 °F /  30.9 °C 76.2 °F /  24.6 °C 30.10in /  1019.2hPa WSW 0.9mph /  1.4km/h 10mph /  16.1km/h 69% 0.00in /  0mm 18 W/m2
19:49 87.4 °F /  30.8 °C 76 °F /  24.4 °C 30.10in /  1019.2hPa WSW 0.6mph /  1km/h 10mph /  16.1km/h 69% 0.00in /  0mm 16 W/m2
19:54 87.2 °F /  30.7 °C 75.8 °F /  24.3 °C 30.09in /  1018.8hPa SW 0.2mph /  0.3km/h 10mph /  16.1km/h 69.2% 0.00in /  0mm 12 W/m2
19:59 86.9 °F /  30.5 °C 75.8 °F /  24.3 °C 30.10in /  1019.2hPa SW 0.7mph /  1.1km/h 10mph /  16.1km/h 69.5% 0.00in /  0mm 11 W/m2
20:00 86.8 °F /  30.4 °C 75.8 °F /  24.3 °C 30.10in /  1019.2hPa Calm   10mph /  16.1km/h 70% 0.00in /  0mm 9 W/m2
20:09 86.5 °F /  30.3 °C 75.6 °F /  24.2 °C 30.10in /  1019.2hPa SSW 0.4mph /  0.6km/h 6mph /  9.7km/h 70% 0.00in /  0mm 7 W/m2
20:14 86.3 °F /  30.2 °C 75.3 °F /  24.1 °C 30.10in /  1019.2hPa WSW 0.5mph /  0.8km/h 6mph /  9.7km/h 70% 0.00in /  0mm 5 W/m2
20:19 86 °F /  30 °C 75.1 °F /  23.9 °C 30.10in /  1019.2hPa WSW 0.1mph /  0.2km/h 6mph /  9.7km/h 70.1% 0.00in /  0mm 0 W/m2
20:24 85.8 °F /  29.9 °C 75.3 °F /  24.1 °C 30.10in /  1019.2hPa SW 0.4mph /  0.6km/h 6mph /  9.7km/h 70.8% 0.00in /  0mm 0 W/m2
20:29 85.6 °F /  29.8 °C 75.1 °F /  23.9 °C 30.09in /  1018.8hPa SW 0.3mph /  0.5km/h 6mph /  9.7km/h 71% 0.00in /  0mm 0 W/m2
20:34 85.3 °F /  29.6 °C 74.9 °F /  23.8 °C 30.09in /  1018.8hPa WSW 0.1mph /  0.2km/h 6mph /  9.7km/h 71.2% 0.00in /  0mm 0 W/m2
20:39 85.1 °F /  29.5 °C 74.9 °F /  23.8 °C 30.10in /  1019.2hPa WSW 0.1mph /  0.2km/h 4mph /  6.4km/h 71.6% 0.00in /  0mm 0 W/m2
20:44 84.9 °F /  29.4 °C 74.9 °F /  23.8 °C 30.10in /  1019.2hPa WSW 0.2mph /  0.3km/h 4mph /  6.4km/h 72% 0.00in /  0mm 0 W/m2
20:49 84.7 °F /  29.3 °C 74.9 °F /  23.8 °C 30.10in /  1019.2hPa WSW 0.2mph /  0.3km/h 4mph /  6.4km/h 72.6% 0.00in /  0mm 0 W/m2
20:54 84.5 °F /  29.2 °C 74.9 °F /  23.8 °C 30.10in /  1019.2hPa Calm   4mph /  6.4km/h 73% 0.00in /  0mm 0 W/m2
20:59 84.3 °F /  29.1 °C 74.7 °F /  23.7 °C 30.10in /  1019.2hPa WSW 0.1mph /  0.2km/h 4mph /  6.4km/h 73% 0.00in /  0mm 0 W/m2
21:04 84.1 °F /  28.9 °C 74.8 °F /  23.8 °C 30.10in /  1019.2hPa Calm   4mph /  6.4km/h 73.8% 0.00in /  0mm 0 W/m2
21:09 83.9 °F /  28.8 °C 74.7 °F /  23.7 °C 30.10in /  1019.2hPa Calm     74% 0.00in /  0mm 0 W/m2
21:14 83.8 °F /  28.8 °C 74.6 °F /  23.7 °C 30.10in /  1019.2hPa Calm     74% 0.00in /  0mm 0 W/m2
21:19 83.6 °F /  28.7 °C 74.4 °F /  23.6 °C 30.10in /  1019.2hPa Calm     74% 0.00in /  0mm 0 W/m2
21:24 83.4 °F /  28.6 °C 74.4 °F /  23.6 °C 30.11in /  1019.5hPa Calm     74.4% 0.00in /  0mm 0 W/m2
21:29 83.3 °F /  28.5 °C 74.5 °F /  23.6 °C 30.11in /  1019.5hPa Calm     75% 0.00in /  0mm 0 W/m2
21:34 83.1 °F /  28.4 °C 74.4 °F /  23.6 °C 30.11in /  1019.5hPa Calm     75% 0.00in /  0mm 0 W/m2
21:39 83 °F /  28.3 °C 74.3 °F /  23.5 °C 30.11in /  1019.5hPa Calm     75% 0.00in /  0mm 0 W/m2
21:44 82.9 °F /  28.3 °C 74.1 °F /  23.4 °C 30.12in /  1019.9hPa Calm     75% 0.00in /  0mm 0 W/m2
21:49 82.7 °F /  28.2 °C 74 °F /  23.3 °C 30.12in /  1019.9hPa Calm     75% 0.00in /  0mm 0 W/m2
21:54 82.6 °F /  28.1 °C 74.2 °F /  23.4 °C 30.12in /  1019.9hPa Calm     75.9% 0.00in /  0mm 0 W/m2
21:59 82.4 °F /  28 °C 74.1 °F /  23.4 °C 30.12in /  1019.9hPa Calm     76% 0.00in /  0mm 0 W/m2
22:04 82.3 °F /  27.9 °C 74 °F /  23.3 °C 30.12in /  1019.9hPa Calm     76% 0.00in /  0mm 0 W/m2
22:09 82.1 °F /  27.8 °C 73.8 °F /  23.2 °C 30.12in /  1019.9hPa Calm     76% 0.00in /  0mm 0 W/m2
22:14 81.9 °F /  27.7 °C 73.7 °F /  23.2 °C 30.12in /  1019.9hPa Calm     76.1% 0.00in /  0mm 0 W/m2
22:19 81.8 °F /  27.7 °C 73.9 °F /  23.3 °C 30.12in /  1019.9hPa Calm     77% 0.00in /  0mm 0 W/m2
22:24 81.6 °F /  27.6 °C 73.7 °F /  23.2 °C 30.12in /  1019.9hPa Calm     77% 0.00in /  0mm 0 W/m2
22:29 81.4 °F /  27.4 °C 73.5 °F /  23.1 °C 30.12in /  1019.9hPa Calm     77% 0.00in /  0mm 0 W/m2
22:34 81.3 °F /  27.4 °C 73.4 °F /  23 °C 30.12in /  1019.9hPa Calm     77% 0.00in /  0mm 0 W/m2
22:39 81.1 °F /  27.3 °C 73.6 °F /  23.1 °C 30.12in /  1019.9hPa Calm     78% 0.00in /  0mm 0 W/m2
22:44 81 °F /  27.2 °C 73.5 °F /  23.1 °C 30.12in /  1019.9hPa Calm     78% 0.00in /  0mm 0 W/m2
22:49 80.8 °F /  27.1 °C 73.3 °F /  22.9 °C 30.12in /  1019.9hPa Calm     78% 0.00in /  0mm 0 W/m2
22:54 80.7 °F /  27.1 °C 73.2 °F /  22.9 °C 30.12in /  1019.9hPa Calm     78% 0.00in /  0mm 0 W/m2
22:59 80.5 °F /  26.9 °C 73.3 °F /  22.9 °C 30.12in /  1019.9hPa Calm     78.6% 0.00in /  0mm 0 W/m2
23:04 80.4 °F /  26.9 °C 73.3 °F /  22.9 °C 30.12in /  1019.9hPa Calm     79% 0.00in /  0mm 0 W/m2
23:09 80.3 °F /  26.8 °C 73.2 °F /  22.9 °C 30.12in /  1019.9hPa Calm     79% 0.00in /  0mm 0 W/m2
23:14 80.2 °F /  26.8 °C 73.1 °F /  22.8 °C 30.12in /  1019.9hPa Calm     79% 0.00in /  0mm 0 W/m2
23:19 80 °F /  26.7 °C 73.1 °F /  22.8 °C 30.12in /  1019.9hPa Calm     79.4% 0.00in /  0mm 0 W/m2
23:24 79.9 °F /  26.6 °C 73.2 °F /  22.9 °C 30.12in /  1019.9hPa Calm     80% 0.00in /  0mm 0 W/m2
23:29 79.8 °F /  26.6 °C 73.1 °F /  22.8 °C 30.12in /  1019.9hPa Calm     80% 0.00in /  0mm 0 W/m2
23:34 79.7 °F /  26.5 °C 73 °F /  22.8 °C 30.13in /  1020.2hPa Calm     80% 0.00in /  0mm 0 W/m2
23:39 79.7 °F /  26.5 °C 72.9 °F /  22.7 °C 30.13in /  1020.2hPa Calm     80% 0.00in /  0mm 0 W/m2
23:44 79.6 °F /  26.4 °C 72.8 °F /  22.7 °C 30.13in /  1020.2hPa Calm     80% 0.00in /  0mm 0 W/m2
23:49 79.5 °F /  26.4 °C 72.8 °F /  22.7 °C 30.13in /  1020.2hPa Calm     80.2% 0.00in /  0mm 0 W/m2
23:54 79.4 °F /  26.3 °C 73 °F /  22.8 °C 30.13in /  1020.2hPa Calm     81% 0.00in /  0mm 0 W/m2
23:59 79.3 °F /  26.3 °C 72.9 °F /  22.7 °C 30.13in /  1020.2hPa Calm     81% 0.00in /  0mm 0 W/m2
Hartford County Weather
Compliments of Weather Underground - 2 mb